Time;durP1;ratioP1;P1;durP2;ratioP2;P2;SDS_P1;SDS_P2;PMS_P1;PMS_P2;Temp;Humidity;BMP_temperature;BMP_pressure;BME280_temperature;BME280_humidity;BME280_pressure;Samples;Min_cycle;Max_cycle;Signal;HPM_P1;HPM_P2
2023/09/08 00:01:37;;;;;;;7.13;6.13;;;21.70;91.00;;;;;;4987696;28;20034;-86
2023/09/08 00:04:04;;;;;;;9.73;6.97;;;21.60;91.10;;;;;;4990197;28;20140;-86
2023/09/08 00:06:29;;;;;;;7.78;6.68;;;21.60;91.20;;;;;;4990006;28;20019;-87
2023/09/08 00:08:55;;;;;;;14.70;6.78;;;21.50;91.30;;;;;;4998604;28;20023;-86
2023/09/08 00:11:21;;;;;;;10.50;7.20;;;21.50;91.30;;;;;;4994927;28;20497;-86
2023/09/08 00:13:46;;;;;;;9.73;7.20;;;21.40;91.40;;;;;;4990363;28;20498;-86
2023/09/08 00:16:12;;;;;;;7.78;6.30;;;21.40;91.50;;;;;;4991069;28;20026;-86
2023/09/08 00:18:37;;;;;;;11.20;6.85;;;21.40;91.50;;;;;;4987961;28;20030;-86
2023/09/08 00:21:03;;;;;;;8.25;6.60;;;21.40;91.50;;;;;;4987787;28;20026;-86
2023/09/08 00:23:28;;;;;;;13.70;6.80;;;21.40;91.50;;;;;;4990577;28;20031;-86
2023/09/08 00:25:54;;;;;;;11.90;6.53;;;21.40;91.50;;;;;;4992088;28;20429;-86
2023/09/08 00:28:20;;;;;;;8.75;7.00;;;21.50;91.50;;;;;;4988417;28;20050;-86
2023/09/08 00:30:45;;;;;;;18.40;7.90;;;21.50;91.50;;;;;;4987332;28;20030;-86
2023/09/08 00:33:13;;;;;;;10.68;7.30;;;21.50;91.60;;;;;;4989109;28;20026;-86
2023/09/08 00:35:43;;;;;;;14.48;6.53;;;21.40;91.60;;;;;;4986081;28;20023;-86
2023/09/08 00:38:09;;;;;;;10.77;7.43;;;21.40;91.60;;;;;;4989012;28;20026;-86
2023/09/08 00:40:34;;;;;;;9.88;7.28;;;21.40;91.60;;;;;;4988890;28;20485;-86
2023/09/08 00:43:00;;;;;;;10.48;6.95;;;21.40;91.70;;;;;;4985468;28;20037;-86
2023/09/08 00:45:28;;;;;;;12.48;7.68;;;21.40;91.80;;;;;;4989653;28;20549;-87
2023/09/08 00:47:54;;;;;;;9.55;7.25;;;21.30;91.90;;;;;;4986654;28;20029;-87
2023/09/08 00:50:19;;;;;;;8.75;6.90;;;21.20;92.10;;;;;;4988438;28;20410;-86
2023/09/08 00:52:45;;;;;;;12.57;7.43;;;21.20;92.20;;;;;;4988650;28;20030;-86
2023/09/08 00:55:11;;;;;;;11.88;7.43;;;21.20;92.30;;;;;;4988049;28;20026;-86
2023/09/08 00:57:36;;;;;;;9.95;7.70;;;21.20;92.30;;;;;;4988625;28;20041;-86
2023/09/08 01:00:05;;;;;;;9.85;6.93;;;21.10;92.50;;;;;;4993521;28;20018;-85
2023/09/08 01:02:31;;;;;;;8.50;7.35;;;21.10;92.60;;;;;;4986425;28;20024;-85
2023/09/08 01:04:59;;;;;;;10.45;7.70;;;21.00;92.70;;;;;;4985616;28;20030;-86
2023/09/08 01:07:26;;;;;;;9.93;7.78;;;20.90;92.90;;;;;;4985553;28;20117;-86
2023/09/08 01:09:52;;;;;;;8.32;7.30;;;20.90;93.00;;;;;;4987430;28;20019;-86
2023/09/08 01:12:19;;;;;;;8.73;7.35;;;20.80;93.10;;;;;;4989450;28;20085;-86
2023/09/08 01:14:44;;;;;;;12.63;7.13;;;20.80;93.30;;;;;;4987937;28;20034;-86
2023/09/08 01:17:12;;;;;;;17.48;8.15;;;20.80;93.50;;;;;;4985093;28;20501;-86
2023/09/08 01:19:38;;;;;;;10.90;7.88;;;20.70;93.60;;;;;;4987711;28;20030;-86
2023/09/08 01:22:29;;;;;;;12.30;7.75;;;20.70;93.70;;;;;;4985830;28;20030;-85
2023/09/08 01:25:19;;;;;;;8.73;7.00;;;20.80;93.70;;;;;;5001242;28;20101;-85
2023/09/08 01:27:57;;;;;;;11.77;7.78;;;20.70;93.70;;;;;;4977947;28;20049;-85
2023/09/08 01:30:26;;;;;;;9.27;7.40;;;20.70;93.90;;;;;;4994921;28;20034;-86
2023/09/08 01:32:53;;;;;;;11.52;7.70;;;20.60;94.00;;;;;;4986728;28;20121;-86
2023/09/08 01:35:19;;;;;;;17.02;7.95;;;20.50;94.20;;;;;;4985881;28;20504;-85
2023/09/08 01:37:47;;;;;;;9.73;7.72;;;20.50;94.30;;;;;;4986372;28;20042;-85
2023/09/08 01:40:13;;;;;;;12.43;7.28;;;20.50;94.40;;;;;;4985667;28;20030;-85
2023/09/08 01:42:39;;;;;;;8.25;6.93;;;20.50;94.40;;;;;;4980834;28;20019;-85
2023/09/08 01:45:07;;;;;;;11.55;7.53;;;20.60;94.40;;;;;;4987442;28;20401;-85
2023/09/08 01:47:34;;;;;;;11.25;7.78;;;20.50;94.40;;;;;;4983743;28;20029;-85
2023/09/08 01:50:02;;;;;;;13.55;7.53;;;20.50;94.40;;;;;;4985346;28;20475;-86
2023/09/08 01:52:28;;;;;;;9.05;7.50;;;20.50;94.50;;;;;;4983511;28;20133;-85
2023/09/08 01:54:53;;;;;;;10.15;7.38;;;20.50;94.60;;;;;;4984450;28;20198;-85
2023/09/08 01:57:19;;;;;;;10.05;7.45;;;20.40;94.80;;;;;;4987733;28;20109;-85
2023/09/08 01:59:44;;;;;;;17.45;7.47;;;20.40;94.90;;;;;;4985392;28;20046;-84
2023/09/08 02:02:11;;;;;;;9.43;7.90;;;20.40;95.00;;;;;;4986097;28;20033;-85
2023/09/08 02:04:36;;;;;;;10.55;8.13;;;20.30;95.00;;;;;;4985768;28;20084;-85
2023/09/08 02:07:03;;;;;;;14.15;7.88;;;20.30;95.10;;;;;;4984492;28;20046;-85
2023/09/08 02:09:37;;;;;;;10.43;8.00;;;20.30;95.20;;;;;;4982911;28;20041;-85
2023/09/08 02:12:03;;;;;;;9.77;8.13;;;20.30;95.30;;;;;;4993509;28;20483;-85
2023/09/08 02:14:29;;;;;;;11.77;8.25;;;20.20;95.80;;;;;;4983560;28;20014;-85
2023/09/08 02:16:55;;;;;;;15.68;8.30;;;20.10;95.60;;;;;;4985493;28;20034;-85
2023/09/08 02:19:21;;;;;;;13.88;7.80;;;20.10;95.90;;;;;;4986182;28;20038;-86
2023/09/08 02:21:46;;;;;;;10.95;8.07;;;20.10;96.00;;;;;;4992030;28;20037;-85
2023/09/08 02:24:12;;;;;;;11.05;8.18;;;20.00;96.20;;;;;;4996157;28;20076;-85
2023/09/08 02:26:41;;;;;;;14.10;8.02;;;20.00;96.30;;;;;;4986730;28;20037;-85
2023/09/08 02:29:07;;;;;;;11.82;8.68;;;19.90;96.30;;;;;;4985026;28;20026;-85
2023/09/08 02:31:33;;;;;;;10.65;8.07;;;19.90;96.40;;;;;;4986248;28;20421;-85
2023/09/08 02:33:58;;;;;;;15.80;8.68;;;19.90;96.50;;;;;;5000376;28;20030;-85
2023/09/08 02:36:27;;;;;;;12.75;8.60;;;19.90;96.50;;;;;;4987269;28;20494;-85
2023/09/08 02:38:53;;;;;;;12.15;8.15;;;19.90;96.60;;;;;;4976374;28;20065;-84
2023/09/08 02:41:19;;;;;;;10.45;8.55;;;19.90;97.00;;;;;;4987772;28;20026;-85
2023/09/08 02:43:45;;;;;;;10.48;8.43;;;19.90;96.80;;;;;;4987460;28;20133;-84
2023/09/08 02:46:10;;;;;;;13.88;8.90;;;19.80;96.90;;;;;;4982353;28;20153;-85
2023/09/08 02:48:36;;;;;;;14.23;7.78;;;19.70;97.00;;;;;;4986580;28;20030;-85
2023/09/08 02:51:04;;;;;;;14.27;8.75;;;19.70;97.20;;;;;;4984583;28;20070;-85
2023/09/08 02:53:33;;;;;;;18.55;8.80;;;19.70;97.30;;;;;;4990414;28;20053;-84
2023/09/08 02:55:58;;;;;;;17.27;8.60;;;19.60;97.40;;;;;;4988222;28;20466;-85
2023/09/08 02:58:25;;;;;;;12.00;8.35;;;19.60;97.60;;;;;;4985600;28;20019;-85
2023/09/08 03:00:52;;;;;;;14.90;8.75;;;19.60;97.70;;;;;;4990586;28;20113;-85
2023/09/08 03:03:21;;;;;;;13.13;9.50;;;19.60;97.80;;;;;;4987880;28;20104;-85
2023/09/08 03:05:46;;;;;;;14.20;8.95;;;19.60;97.80;;;;;;4992040;28;20030;-85
2023/09/08 03:08:12;;;;;;;13.05;8.63;;;19.60;97.90;;;;;;4992480;28;20475;-85
2023/09/08 03:10:37;;;;;;;15.15;8.95;;;19.50;97.90;;;;;;4985239;28;20038;-84
2023/09/08 03:13:04;;;;;;;18.55;9.15;;;19.50;98.10;;;;;;4990355;28;20426;-84
2023/09/08 03:15:29;;;;;;;12.10;8.43;;;19.40;98.30;;;;;;4988708;28;20022;-84
2023/09/08 03:17:58;;;;;;;15.18;9.45;;;19.40;98.50;;;;;;4989285;28;20038;-85
2023/09/08 03:20:25;;;;;;;11.00;8.77;;;19.30;98.70;;;;;;4988765;28;20030;-84
2023/09/08 03:22:51;;;;;;;17.65;9.55;;;19.20;98.90;;;;;;4981378;28;20580;-84
2023/09/08 03:25:17;;;;;;;12.77;9.65;;;19.10;99.20;;;;;;4988875;28;20113;-85
2023/09/08 03:27:42;;;;;;;17.35;9.68;;;19.10;99.40;;;;;;4990323;28;20030;-85
2023/09/08 03:30:09;;;;;;;14.23;9.60;;;19.10;99.50;;;;;;4990173;28;20026;-85
2023/09/08 03:32:34;;;;;;;10.93;9.43;;;19.10;99.60;;;;;;4989880;28;20022;-85
2023/09/08 03:35:00;;;;;;;16.08;9.38;;;19.10;99.60;;;;;;4983830;28;20022;-85
2023/09/08 03:37:28;;;;;;;14.82;10.02;;;19.20;99.60;;;;;;4991089;28;20074;-85
2023/09/08 03:39:56;;;;;;;15.43;10.07;;;19.10;99.50;;;;;;4988636;28;20019;-85
2023/09/08 03:42:22;;;;;;;15.73;9.80;;;19.10;99.70;;;;;;4987871;28;20018;-85
2023/09/08 03:44:47;;;;;;;13.00;9.43;;;19.00;99.90;;;;;;4987961;28;20101;-84
2023/09/08 03:47:15;;;;;;;14.85;10.60;;;19.00;99.90;;;;;;4986021;28;20022;-85
2023/09/08 03:49:43;;;;;;;13.30;10.05;;;19.00;99.90;;;;;;4989488;28;20038;-84
2023/09/08 03:52:09;;;;;;;12.43;9.55;;;18.90;99.90;;;;;;4987492;28;20030;-85
2023/09/08 03:54:35;;;;;;;12.70;9.70;;;18.80;99.90;;;;;;4987778;28;20034;-85
2023/09/08 03:57:00;;;;;;;16.25;10.13;;;18.80;99.90;;;;;;4980959;28;20034;-85
2023/09/08 03:59:26;;;;;;;17.48;9.70;;;18.90;99.90;;;;;;4984797;28;20111;-84
2023/09/08 04:01:51;;;;;;;14.95;9.68;;;18.80;99.90;;;;;;4986367;28;20054;-85
2023/09/08 04:04:19;;;;;;;17.27;9.65;;;18.90;99.90;;;;;;4984387;28;20023;-84
2023/09/08 04:06:45;;;;;;;14.65;10.48;;;19.00;99.90;;;;;;4987614;28;20030;-84
2023/09/08 04:09:11;;;;;;;13.43;10.13;;;19.00;99.90;;;;;;4985342;28;20478;-84
2023/09/08 04:11:36;;;;;;;13.35;9.40;;;19.10;99.90;;;;;;4985414;28;20049;-85
2023/09/08 04:14:02;;;;;;;16.65;10.02;;;19.10;99.90;;;;;;4987327;28;20034;-85
2023/09/08 04:16:28;;;;;;;18.17;10.88;;;19.10;99.90;;;;;;4988711;28;20174;-84
2023/09/08 04:18:54;;;;;;;15.25;9.45;;;19.20;99.90;;;;;;4986195;28;20611;-84
2023/09/08 04:21:19;;;;;;;14.15;10.20;;;19.20;99.90;;;;;;4985898;28;20026;-84
2023/09/08 04:23:46;;;;;;;13.45;9.43;;;19.10;99.90;;;;;;4987913;28;20026;-84
2023/09/08 04:26:12;;;;;;;15.13;9.65;;;19.10;99.90;;;;;;4987901;28;20015;-84
2023/09/08 04:28:38;;;;;;;12.30;9.63;;;19.10;99.90;;;;;;4988745;28;20081;-84
2023/09/08 04:31:03;;;;;;;24.95;12.02;;;19.10;99.90;;;;;;4987227;28;20030;-84
2023/09/08 04:33:29;;;;;;;16.10;9.93;;;19.10;99.90;;;;;;4989359;28;20019;-84
2023/09/08 04:35:55;;;;;;;14.55;10.10;;;19.10;99.90;;;;;;4986549;28;20363;-84
2023/09/08 04:38:20;;;;;;;15.40;9.35;;;19.10;99.90;;;;;;4995973;28;20038;-84
2023/09/08 04:40:46;;;;;;;21.63;9.98;;;19.10;99.90;;;;;;4990641;28;20037;-84
2023/09/08 04:43:12;;;;;;;13.00;9.63;;;19.10;99.90;;;;;;4987769;28;20387;-84
2023/09/08 04:45:38;;;;;;;17.30;9.30;;;19.00;99.90;;;;;;4989070;28;20430;-84
2023/09/08 04:48:04;;;;;;;19.20;10.15;;;19.00;99.90;;;;;;4984826;28;20045;-85
2023/09/08 04:50:30;;;;;;;18.95;10.43;;;18.90;99.90;;;;;;4980187;28;20125;-84
2023/09/08 04:52:56;;;;;;;15.07;10.40;;;18.90;99.90;;;;;;4986438;28;20093;-84
2023/09/08 04:55:21;;;;;;;20.10;10.45;;;18.80;99.90;;;;;;4988471;28;20113;-85
2023/09/08 04:57:47;;;;;;;15.27;10.02;;;18.70;99.90;;;;;;4977146;28;20035;-84
2023/09/08 05:00:13;;;;;;;16.88;9.95;;;18.60;99.90;;;;;;4986552;28;20033;-84
2023/09/08 05:02:39;;;;;;;13.52;11.18;;;18.60;99.90;;;;;;4988992;28;20101;-84
2023/09/08 05:05:07;;;;;;;18.73;11.65;;;18.60;99.90;;;;;;4987573;28;20113;-84
2023/09/08 05:07:32;;;;;;;17.70;11.38;;;18.60;99.90;;;;;;4988265;28;20018;-84
2023/09/08 05:09:58;;;;;;;12.00;9.85;;;18.50;99.90;;;;;;4986806;28;20023;-84
2023/09/08 05:12:24;;;;;;;19.77;11.00;;;18.50;99.90;;;;;;4986586;28;20438;-84
2023/09/08 05:14:56;;;;;;;17.30;11.93;;;18.50;99.90;;;;;;4988257;28;20081;-85
2023/09/08 05:17:23;;;;;;;17.95;11.25;;;18.60;99.90;;;;;;4984692;28;20296;-84
2023/09/08 05:19:49;;;;;;;15.55;10.80;;;18.50;99.90;;;;;;4984764;28;20034;-84
2023/09/08 05:22:14;;;;;;;18.27;11.65;;;18.50;99.90;;;;;;4983407;28;20233;-84
2023/09/08 05:24:40;;;;;;;16.70;12.20;;;18.40;99.90;;;;;;4989067;28;20114;-85
2023/09/08 05:27:06;;;;;;;18.17;11.30;;;18.40;99.90;;;;;;4987940;28;20037;-82
2023/09/08 05:29:31;;;;;;;16.67;10.50;;;18.30;99.90;;;;;;4987875;28;20053;-84
2023/09/08 05:31:57;;;;;;;18.77;11.23;;;18.30;99.90;;;;;;4982745;28;20038;-84
2023/09/08 05:34:25;;;;;;;21.38;11.60;;;18.30;99.90;;;;;;4984726;28;20030;-84
2023/09/08 05:36:53;;;;;;;15.90;11.57;;;18.40;99.90;;;;;;4985881;28;20384;-83
2023/09/08 05:39:19;;;;;;;15.43;11.43;;;18.40;99.90;;;;;;4986180;28;20491;-84
2023/09/08 05:41:45;;;;;;;19.58;11.52;;;18.50;99.90;;;;;;4985354;28;20117;-84
2023/09/08 05:44:10;;;;;;;16.35;12.07;;;18.50;99.90;;;;;;4985846;28;20069;-84
2023/09/08 05:46:36;;;;;;;15.88;10.63;;;18.50;99.90;;;;;;4985120;28;20524;-84
2023/09/08 05:49:02;;;;;;;16.05;11.13;;;18.60;99.90;;;;;;4985291;28;20029;-85
2023/09/08 05:51:28;;;;;;;16.10;12.15;;;18.60;99.90;;;;;;4986117;28;20068;-85
2023/09/08 05:53:53;;;;;;;15.35;10.38;;;18.70;99.90;;;;;;4985276;28;20042;-84
2023/09/08 05:56:20;;;;;;;16.83;10.27;;;18.80;99.90;;;;;;4986090;28;20027;-84
2023/09/08 05:58:48;;;;;;;18.15;10.73;;;18.80;99.90;;;;;;4987479;28;20026;-85
2023/09/08 06:01:14;;;;;;;17.35;11.32;;;18.90;99.90;;;;;;4985404;28;20014;-84
2023/09/08 06:03:40;;;;;;;14.98;10.77;;;18.90;99.90;;;;;;4984023;28;20398;-83
2023/09/08 06:06:06;;;;;;;18.05;11.13;;;18.90;99.90;;;;;;4985441;28;20030;-85
2023/09/08 06:08:34;;;;;;;17.95;10.85;;;18.90;99.90;;;;;;4984651;28;20030;-84
2023/09/08 06:10:59;;;;;;;16.35;10.38;;;19.00;99.90;;;;;;4985443;28;20057;-84
2023/09/08 06:13:25;;;;;;;17.70;10.63;;;19.10;99.90;;;;;;4985077;28;20049;-84
2023/09/08 06:15:51;;;;;;;15.98;10.77;;;19.10;99.90;;;;;;4986492;28;20021;-83
2023/09/08 06:18:16;;;;;;;18.80;11.10;;;19.20;99.90;;;;;;4984861;28;20062;-85
2023/09/08 06:20:47;;;;;;;16.17;11.27;;;19.20;99.90;;;;;;4982763;28;20023;-84
2023/09/08 06:23:13;;;;;;;16.27;10.38;;;19.20;99.90;;;;;;4981108;28;20781;-85
2023/09/08 06:25:38;;;;;;;15.68;11.77;;;19.20;99.90;;;;;;4984631;28;20065;-83
2023/09/08 06:28:04;;;;;;;17.55;11.05;;;19.30;99.90;;;;;;4983490;28;20121;-84
2023/09/08 06:30:30;;;;;;;25.30;11.15;;;19.40;99.90;;;;;;4986561;28;20038;-84
2023/09/08 06:32:56;;;;;;;17.02;11.73;;;19.40;99.90;;;;;;4990604;28;20022;-85
2023/09/08 06:35:21;;;;;;;21.15;11.18;;;19.50;99.90;;;;;;4991630;28;20609;-83
2023/09/08 06:37:47;;;;;;;17.20;11.30;;;19.50;99.90;;;;;;4988343;28;20043;-84
2023/09/08 06:40:12;;;;;;;16.27;10.63;;;19.60;99.90;;;;;;4988359;28;20030;-85
2023/09/08 06:42:38;;;;;;;17.25;11.13;;;19.60;99.90;;;;;;4991970;28;20026;-83
2023/09/08 06:45:04;;;;;;;14.20;11.60;;;19.60;99.90;;;;;;4990134;28;20018;-83
2023/09/08 06:47:30;;;;;;;12.70;10.95;;;19.70;99.90;;;;;;4989618;28;20244;-88
2023/09/08 06:49:55;;;;;;;17.20;11.23;;;19.80;99.90;;;;;;4993588;28;20109;-88
2023/09/08 06:52:24;;;;;;;17.75;11.13;;;19.90;99.90;;;;;;4996332;28;20030;-95
2023/09/08 06:54:50;;;;;;;14.63;11.02;;;19.90;99.90;;;;;;4998764;28;20027;-88
2023/09/08 06:57:18;;;;;;;19.08;11.25;;;19.90;99.90;;;;;;4988750;28;20048;-80
2023/09/08 06:59:46;;;;;;;20.08;11.00;;;20.00;99.90;;;;;;4985954;28;20030;-83
2023/09/08 07:02:14;;;;;;;17.73;10.75;;;20.00;99.90;;;;;;4986034;28;20037;-82
2023/09/08 07:04:40;;;;;;;766.40;294.98;;;20.20;99.90;;;;;;4983824;28;20030;-82
2023/09/08 07:07:07;;;;;;;32.15;17.77;;;20.30;99.90;;;;;;4997101;28;20315;-84
2023/09/08 07:09:36;;;;;;;16.15;11.65;;;20.40;99.90;;;;;;4987432;28;20521;-86
2023/09/08 07:12:06;;;;;;;13.38;9.95;;;20.50;99.90;;;;;;4983880;28;20030;-80
2023/09/08 07:14:32;;;;;;;16.13;11.15;;;20.60;99.90;;;;;;4978252;28;20134;-80
2023/09/08 07:16:58;;;;;;;12.77;9.82;;;20.70;99.90;;;;;;4978259;28;20046;-80
2023/09/08 07:19:27;;;;;;;15.73;9.77;;;20.80;99.80;;;;;;4989697;28;20069;-81
2023/09/08 07:21:55;;;;;;;17.45;10.10;;;20.90;99.80;;;;;;4988325;28;20475;-81
2023/09/08 07:24:21;;;;;;;16.25;10.10;;;21.00;99.80;;;;;;4987808;28;20398;-80
2023/09/08 07:26:47;;;;;;;11.63;10.05;;;21.10;99.60;;;;;;4973256;28;20705;-79
2023/09/08 07:29:12;;;;;;;14.18;9.75;;;21.20;99.50;;;;;;4984207;28;20046;-80
2023/09/08 07:31:39;;;;;;;21.27;10.70;;;21.30;99.20;;;;;;4982072;28;20027;-80
2023/09/08 07:34:08;;;;;;;410.90;182.75;;;21.40;99.20;;;;;;4981867;28;20470;-81
2023/09/08 07:36:35;;;;;;;251.35;117.93;;;21.50;98.80;;;;;;4983805;28;20038;-81
2023/09/08 07:39:01;;;;;;;15.10;10.45;;;21.70;98.70;;;;;;4984566;28;20037;-81
2023/09/08 07:41:30;;;;;;;13.00;9.35;;;21.70;98.30;;;;;;4985872;28;20026;-84
2023/09/08 07:44:01;;;;;;;12.45;8.77;;;21.90;98.30;;;;;;4980364;28;20046;-84
2023/09/08 07:46:27;;;;;;;12.48;8.90;;;22.00;98.20;;;;;;4981711;28;20390;-92
2023/09/08 07:49:01;;;;;;;14.48;8.85;;;22.10;98.30;;;;;;4987413;28;20497;-84
2023/09/08 07:51:34;;;;;;;11.15;9.18;;;22.20;98.00;;;;;;4982288;28;20022;-80
2023/09/08 07:54:03;;;;;;;17.35;8.43;;;22.40;97.30;;;;;;4979008;28;20347;-89
2023/09/08 07:56:36;;;;;;;12.25;7.88;;;22.40;96.30;;;;;;4981427;28;20022;-89
2023/09/08 07:59:05;;;;;;;16.63;7.43;;;22.50;95.60;;;;;;4994961;28;20030;-89
2023/09/08 08:01:32;;;;;;;12.23;7.55;;;22.60;94.70;;;;;;4992353;28;20022;-90
2023/09/08 08:04:05;;;;;;;10.43;7.97;;;22.70;94.80;;;;;;4979699;28;20022;-83
2023/09/08 08:06:31;;;;;;;11.57;7.85;;;22.80;94.40;;;;;;4980069;28;20089;-81
2023/09/08 08:08:56;;;;;;;11.88;7.88;;;22.90;94.40;;;;;;4983129;28;20124;-86
2023/09/08 08:11:23;;;;;;;16.60;7.72;;;23.00;94.20;;;;;;4977488;28;20026;-84
2023/09/08 08:13:48;;;;;;;10.75;7.50;;;23.10;93.80;;;;;;4982636;28;20030;-86
2023/09/08 08:16:14;;;;;;;12.77;8.50;;;23.10;93.10;;;;;;4977113;28;20756;-83
2023/09/08 08:18:40;;;;;;;15.73;8.27;;;23.30;93.50;;;;;;4976914;28;20035;-84
2023/09/08 08:21:08;;;;;;;11.88;7.82;;;23.50;93.20;;;;;;4984028;28;20476;-88
2023/09/08 08:23:35;;;;;;;9.15;7.20;;;23.70;92.70;;;;;;4980725;28;20026;-84
2023/09/08 08:26:09;;;;;;;47.42;20.67;;;23.80;92.60;;;;;;4986552;28;20018;-92
2023/09/08 08:28:35;;;;;;;22.98;8.68;;;24.10;91.70;;;;;;4986726;28;20026;-90
2023/09/08 08:31:01;;;;;;;18.33;7.72;;;24.20;90.90;;;;;;4984482;28;20026;-87
2023/09/08 08:33:27;;;;;;;27.33;12.50;;;24.30;90.40;;;;;;4988159;28;20049;-85
2023/09/08 08:35:53;;;;;;;13.35;7.10;;;24.50;89.50;;;;;;4983911;28;20030;-86
2023/09/08 08:38:19;;;;;;;19.65;6.90;;;24.70;87.90;;;;;;5003497;28;20402;-86
2023/09/08 08:40:47;;;;;;;12.13;7.07;;;24.90;89.20;;;;;;4985685;28;20733;-86
2023/09/08 08:43:13;;;;;;;14.65;7.20;;;25.00;88.10;;;;;;4984281;28;20027;-89
2023/09/08 08:45:41;;;;;;;14.60;8.45;;;25.20;87.20;;;;;;4987952;28;20088;-88
2023/09/08 08:48:08;;;;;;;15.30;7.93;;;25.40;87.00;;;;;;4985754;28;20026;-90
2023/09/08 08:50:35;;;;;;;20.00;7.88;;;25.50;86.10;;;;;;4981262;28;20150;-91
2023/09/08 08:53:02;;;;;;;19.92;8.38;;;25.60;85.70;;;;;;4986148;28;20069;-84
2023/09/08 08:55:30;;;;;;;11.60;7.70;;;25.90;86.40;;;;;;4982476;28;20445;-84
2023/09/08 08:58:02;;;;;;;16.02;7.40;;;25.90;85.20;;;;;;4976939;28;20082;-81
2023/09/08 09:00:29;;;;;;;18.92;7.65;;;26.10;82.90;;;;;;4982622;28;20081;-80
2023/09/08 09:02:57;;;;;;;21.08;7.82;;;26.30;82.10;;;;;;4989179;28;20057;-81
2023/09/08 09:05:24;;;;;;;14.05;7.63;;;26.60;80.60;;;;;;4986932;28;20032;-83
2023/09/08 09:07:51;;;;;;;13.32;7.70;;;26.90;77.70;;;;;;4983927;28;20798;-90
2023/09/08 09:10:19;;;;;;;16.20;8.32;;;27.10;77.90;;;;;;4988049;28;20027;-77
2023/09/08 09:12:45;;;;;;;13.32;7.45;;;27.50;77.40;;;;;;4984838;28;20093;-80
2023/09/08 09:15:12;;;;;;;17.17;8.35;;;27.70;75.20;;;;;;4984646;28;20072;-87
2023/09/08 09:18:07;;;;;;;13.15;8.00;;;27.90;74.90;;;;;;4999234;28;20619;-87
2023/09/08 09:20:43;;;;;;;17.40;8.30;;;28.10;73.60;;;;;;4995291;28;21190;-81
2023/09/08 09:23:18;;;;;;;;;;;;;;;;;;;;;
2023/09/08 09:25:44;;;;;;;13.07;7.93;;;28.50;73.80;;;;;;4983097;28;20020;-84
2023/09/08 09:28:10;;;;;;;9.82;7.07;;;28.70;73.10;;;;;;4982963;28;20018;-83
2023/09/08 09:30:51;;;;;;;14.73;8.18;;;28.70;72.40;;;;;;4985528;28;20022;-85
2023/09/08 09:33:17;;;;;;;8.57;7.53;;;28.90;72.40;;;;;;4999417;28;20026;-79
2023/09/08 09:35:48;;;;;;;11.73;7.15;;;28.70;71.00;;;;;;4986157;28;20090;-83
2023/09/08 09:38:16;;;;;;;10.25;7.70;;;28.70;71.70;;;;;;4981014;28;20070;-79
2023/09/08 09:40:42;;;;;;;11.60;7.30;;;28.90;71.50;;;;;;4986892;28;20030;-82
2023/09/08 09:43:09;;;;;;;11.43;7.97;;;28.90;70.40;;;;;;4982582;28;20369;-82
2023/09/08 09:45:36;;;;;;;10.05;8.45;;;28.90;72.60;;;;;;4987456;28;20022;-85
2023/09/08 09:48:04;;;;;;;12.02;8.45;;;28.80;70.40;;;;;;4986753;28;20085;-88
2023/09/08 09:50:39;;;;;;;10.73;7.53;;;28.80;71.10;;;;;;4984909;28;20054;-84
2023/09/08 09:53:13;;;;;;;10.57;8.05;;;29.10;70.90;;;;;;4986295;28;20089;-81
2023/09/08 09:55:42;;;;;;;19.63;8.77;;;29.50;69.10;;;;;;4988807;28;20863;-88
2023/09/08 09:58:22;;;;;;;;;;;;;;;;;;;;;
2023/09/08 10:01:00;;;;;;;13.68;8.65;;;29.90;67.70;;;;;;4986238;28;20031;-89
2023/09/08 10:03:29;;;;;;;16.15;8.82;;;29.90;68.60;;;;;;4985792;28;20062;-87
2023/09/08 10:05:58;;;;;;;16.55;7.85;;;30.20;67.50;;;;;;4981398;28;20073;-88
2023/09/08 10:08:28;;;;;;;15.60;8.10;;;30.20;66.70;;;;;;4982398;28;20022;-82
2023/09/08 10:10:59;;;;;;;11.27;7.15;;;30.30;66.50;;;;;;4985710;28;20019;-81
2023/09/08 10:13:30;;;;;;;15.95;9.15;;;30.50;66.80;;;;;;4984923;28;20046;-83
2023/09/08 10:16:01;;;;;;;14.05;7.90;;;30.50;66.20;;;;;;4984276;28;20524;-83
2023/09/08 10:18:28;;;;;;;11.07;7.50;;;30.10;65.50;;;;;;4988207;28;20383;-82
2023/09/08 10:20:56;;;;;;;15.18;7.47;;;30.10;65.60;;;;;;4984253;28;20062;-81
2023/09/08 10:23:36;;;;;;;11.02;8.88;;;30.10;66.20;;;;;;4980039;28;20471;-83
2023/09/08 10:26:05;;;;;;;11.68;8.77;;;30.10;65.20;;;;;;4985065;28;20033;-82
2023/09/08 10:28:33;;;;;;;15.48;7.75;;;29.90;65.50;;;;;;4984279;28;20050;-82
2023/09/08 10:31:02;;;;;;;12.15;7.85;;;30.00;65.50;;;;;;4984442;28;20022;-83
2023/09/08 10:33:28;;;;;;;14.45;7.78;;;30.10;65.70;;;;;;4984422;28;20026;-85
2023/09/08 10:35:54;;;;;;;26.17;13.90;;;30.40;65.50;;;;;;4984518;28;20026;-86
2023/09/08 10:38:27;;;;;;;12.80;7.70;;;30.50;64.40;;;;;;4979194;28;20034;-85
2023/09/08 10:41:14;;;;;;;14.57;9.23;;;30.30;64.50;;;;;;4982579;28;20117;-86
2023/09/08 10:43:39;;;;;;;11.68;8.25;;;29.80;65.00;;;;;;4986347;28;20019;-80
2023/09/08 10:46:21;;;;;;;11.20;7.50;;;30.00;66.40;;;;;;4983070;28;20026;-78
2023/09/08 10:48:49;;;;;;;60.45;30.30;;;30.50;64.30;;;;;;4980004;28;20110;-79
2023/09/08 10:51:17;;;;;;;8.27;7.47;;;30.80;61.60;;;;;;4982043;28;20054;-79
2023/09/08 10:53:46;;;;;;;19.75;10.80;;;30.50;61.60;;;;;;4981151;28;20030;-78
2023/09/08 10:56:11;;;;;;;14.95;7.65;;;30.40;64.20;;;;;;4982416;28;20109;-81
2023/09/08 10:58:40;;;;;;;14.40;7.60;;;30.60;64.10;;;;;;4981370;28;20434;-80
2023/09/08 11:01:07;;;;;;;10.27;7.40;;;31.10;63.10;;;;;;4982391;28;20014;-80
2023/09/08 11:03:38;;;;;;;12.23;7.30;;;31.40;59.70;;;;;;4984583;28;20031;-83
2023/09/08 11:06:05;;;;;;;9.43;8.10;;;31.60;62.00;;;;;;4976800;28;20027;-81
2023/09/08 11:08:32;;;;;;;10.65;8.40;;;31.70;59.80;;;;;;4982151;28;20029;-80
2023/09/08 11:10:59;;;;;;;12.55;8.02;;;31.80;60.00;;;;;;4981994;28;20037;-79
2023/09/08 11:13:28;;;;;;;10.57;7.70;;;31.20;59.70;;;;;;4983538;28;20023;-80
2023/09/08 11:15:54;;;;;;;10.18;7.55;;;31.30;61.00;;;;;;4981652;28;20475;-80
2023/09/08 11:18:26;;;;;;;13.15;6.63;;;31.40;60.30;;;;;;4986805;28;20121;-80
2023/09/08 11:20:53;;;;;;;10.60;7.57;;;31.40;60.40;;;;;;4981848;28;20113;-85
2023/09/08 11:23:20;;;;;;;25.90;13.77;;;31.20;59.90;;;;;;4985950;28;20506;-85
2023/09/08 11:25:46;;;;;;;13.15;7.30;;;31.10;60.50;;;;;;4989108;28;20030;-85
2023/09/08 11:28:15;;;;;;;14.80;7.43;;;31.20;60.90;;;;;;4984513;28;20576;-82
2023/09/08 11:30:40;;;;;;;12.20;7.57;;;31.40;61.20;;;;;;4983992;28;20438;-79
2023/09/08 11:33:16;;;;;;;13.43;7.25;;;31.10;59.50;;;;;;4983335;28;20241;-86
2023/09/08 11:35:48;;;;;;;8.57;7.10;;;31.20;60.70;;;;;;4979532;28;20026;-82
2023/09/08 11:38:14;;;;;;;7.55;6.53;;;31.50;59.20;;;;;;4986081;28;20413;-81
2023/09/08 11:40:40;;;;;;;10.80;7.55;;;31.60;59.30;;;;;;4988275;28;20041;-80
2023/09/08 11:43:07;;;;;;;14.80;7.82;;;31.70;59.80;;;;;;4985776;28;20085;-79
2023/09/08 11:45:36;;;;;;;9.27;6.93;;;31.90;60.00;;;;;;4976617;28;20026;-79
2023/09/08 11:48:03;;;;;;;9.57;7.53;;;31.80;59.20;;;;;;4985203;28;20069;-81
2023/09/08 11:50:30;;;;;;;12.85;7.13;;;31.80;58.20;;;;;;4984070;28;20029;-81
2023/09/08 11:53:00;;;;;;;8.65;6.25;;;32.00;56.70;;;;;;4976483;28;20074;-81
2023/09/08 11:55:26;;;;;;;26.55;7.35;;;32.10;57.40;;;;;;4984815;28;20030;-81
2023/09/08 11:58:00;;;;;;;9.27;6.57;;;32.10;58.00;;;;;;4985403;28;20038;-81
2023/09/08 12:00:29;;;;;;;10.40;6.47;;;32.20;58.00;;;;;;4983131;28;20446;-81
2023/09/08 12:02:55;;;;;;;9.23;6.43;;;32.50;58.30;;;;;;4984452;28;20030;-81
2023/09/08 12:05:22;;;;;;;9.55;7.20;;;32.50;56.40;;;;;;4984933;28;20023;-80
2023/09/08 12:07:54;;;;;;;9.02;7.03;;;32.40;57.10;;;;;;4983472;28;20026;-80
2023/09/08 12:10:21;;;;;;;6.97;6.38;;;32.60;58.90;;;;;;4982494;28;20161;-84
2023/09/08 12:12:57;;;;;;;16.50;7.78;;;32.90;58.00;;;;;;4984662;28;20030;-84
2023/09/08 12:15:35;;;;;;;28.95;16.08;;;33.20;55.80;;;;;;4980387;28;20027;-84
2023/09/08 12:18:05;;;;;;;49.80;26.25;;;33.40;56.50;;;;;;4984864;28;20029;-83
2023/09/08 12:20:32;;;;;;;15.45;10.32;;;33.70;56.90;;;;;;4986529;28;20092;-83
2023/09/08 12:23:01;;;;;;;28.70;16.13;;;33.80;56.70;;;;;;4981077;28;21221;-84
2023/09/08 12:25:27;;;;;;;9.07;6.47;;;33.70;57.40;;;;;;4986287;28;20030;-80
2023/09/08 12:27:54;;;;;;;10.95;7.97;;;33.80;57.10;;;;;;4985242;28;20250;-80
2023/09/08 12:30:29;;;;;;;9.48;7.38;;;34.00;57.00;;;;;;4971693;28;20054;-79
2023/09/08 12:32:56;;;;;;;12.48;7.15;;;34.10;55.40;;;;;;4983351;28;20643;-81
2023/09/08 12:35:22;;;;;;;16.92;7.97;;;34.10;55.90;;;;;;4981013;28;20026;-81
2023/09/08 12:38:05;;;;;;;7.88;6.97;;;34.20;55.40;;;;;;4980824;28;20331;-80
2023/09/08 12:40:36;;;;;;;7.75;6.95;;;34.30;55.70;;;;;;4997486;28;20427;-81